sensor_id;sensor_type;location;lat;lon;timestamp;pressure;altitude;pressure_sealevel;temperature;humidity
7474;BME280;3778;42.572;23.426;2023-01-25T00:01:45;95745.72;;;-146.70;87.54
7474;BME280;3778;42.572;23.426;2023-01-25T00:04:12;95695.69;;;-146.70;87.85
7474;BME280;3778;42.572;23.426;2023-01-25T00:06:39;95701.94;;;-146.70;87.87
7474;BME280;3778;42.572;23.426;2023-01-25T00:09:09;95749.88;;;-146.70;87.91
7474;BME280;3778;42.572;23.426;2023-01-25T00:11:36;95754.06;;;-146.70;87.96
7474;BME280;3778;42.572;23.426;2023-01-25T00:14:03;95783.25;;;-146.70;88.09
7474;BME280;3778;42.572;23.426;2023-01-25T00:16:30;95745.72;;;-146.70;88.00
7474;BME280;3778;42.572;23.426;2023-01-25T00:18:56;95729.03;;;-146.70;87.97
7474;BME280;3778;42.572;23.426;2023-01-25T00:21:24;95735.28;;;-146.70;87.98
7474;BME280;3778;42.572;23.426;2023-01-25T00:23:51;95743.63;;;-146.70;88.29
7474;BME280;3778;42.572;23.426;2023-01-25T00:26:20;95712.38;;;-146.70;88.47
7474;BME280;3778;42.572;23.426;2023-01-25T00:28:48;95739.47;;;-146.70;88.59
7474;BME280;3778;42.572;23.426;2023-01-25T00:31:16;95695.69;;;-146.70;88.44
7474;BME280;3778;42.572;23.426;2023-01-25T00:33:49;95724.88;;;-146.70;88.45
7474;BME280;3778;42.572;23.426;2023-01-25T00:36:33;95751.97;;;-146.70;88.28
7474;BME280;3778;42.572;23.426;2023-01-25T00:39:05;95724.88;;;-146.70;88.14
7474;BME280;3778;42.572;23.426;2023-01-25T00:41:34;95745.72;;;-146.70;88.10
7474;BME280;3778;42.572;23.426;2023-01-25T00:44:00;95745.72;;;-146.70;88.11
7474;BME280;3778;42.572;23.426;2023-01-25T00:46:27;95789.50;;;-146.70;88.08
7474;BME280;3778;42.572;23.426;2023-01-25T00:48:54;95806.16;;;-146.70;88.14
7474;BME280;3778;42.572;23.426;2023-01-25T00:51:21;95731.13;;;-146.70;88.26
7474;BME280;3778;42.572;23.426;2023-01-25T00:53:49;95774.91;;;-146.70;88.34
7474;BME280;3778;42.572;23.426;2023-01-25T00:56:16;95708.19;;;-146.70;88.52
7474;BME280;3778;42.572;23.426;2023-01-25T00:58:44;95741.56;;;-146.70;88.56
7474;BME280;3778;42.572;23.426;2023-01-25T01:01:11;95743.63;;;-146.70;88.45
7474;BME280;3778;42.572;23.426;2023-01-25T01:03:38;95751.97;;;-146.70;88.54
7474;BME280;3778;42.572;23.426;2023-01-25T01:06:07;95685.28;;;-146.70;88.44
7474;BME280;3778;42.572;23.426;2023-01-25T01:08:35;95691.53;;;-146.70;88.51
7474;BME280;3778;42.572;23.426;2023-01-25T01:11:05;95760.31;;;-146.70;88.34
7474;BME280;3778;42.572;23.426;2023-01-25T01:13:33;95726.97;;;-146.70;88.30
7474;BME280;3778;42.572;23.426;2023-01-25T01:16:02;95760.31;;;-146.70;88.32
7474;BME280;3778;42.572;23.426;2023-01-25T01:18:32;95756.13;;;-146.70;88.37
7474;BME280;3778;42.572;23.426;2023-01-25T01:20:59;95760.31;;;-146.70;88.41
7474;BME280;3778;42.572;23.426;2023-01-25T01:23:27;95737.38;;;-146.70;88.66
7474;BME280;3778;42.572;23.426;2023-01-25T01:25:54;95760.31;;;-146.70;88.90
7474;BME280;3778;42.572;23.426;2023-01-25T01:28:20;95787.41;;;-146.70;89.15
7474;BME280;3778;42.572;23.426;2023-01-25T01:30:47;95747.81;;;-146.70;89.32
7474;BME280;3778;42.572;23.426;2023-01-25T01:33:15;95726.97;;;-146.70;89.39
7474;BME280;3778;42.572;23.426;2023-01-25T01:35:42;95729.03;;;-146.70;89.60
7474;BME280;3778;42.572;23.426;2023-01-25T01:38:11;95739.47;;;-146.70;89.69
7474;BME280;3778;42.572;23.426;2023-01-25T01:40:43;95747.81;;;-146.70;89.82
7474;BME280;3778;42.572;23.426;2023-01-25T01:43:16;95724.88;;;-146.70;89.97
7474;BME280;3778;42.572;23.426;2023-01-25T01:45:52;95737.38;;;-146.70;89.96
7474;BME280;3778;42.572;23.426;2023-01-25T01:48:30;95762.41;;;-146.70;89.98
7474;BME280;3778;42.572;23.426;2023-01-25T01:51:00;95777.00;;;-146.70;89.99
7474;BME280;3778;42.572;23.426;2023-01-25T01:53:29;95754.06;;;-146.70;90.00
7474;BME280;3778;42.572;23.426;2023-01-25T01:56:01;95762.41;;;-146.70;90.05
7474;BME280;3778;42.572;23.426;2023-01-25T01:58:31;95812.44;;;-146.70;90.00
7474;BME280;3778;42.572;23.426;2023-01-25T02:00:58;95764.47;;;-146.70;89.82
7474;BME280;3778;42.572;23.426;2023-01-25T02:03:27;95791.59;;;-146.70;89.79
7474;BME280;3778;42.572;23.426;2023-01-25T02:05:57;95758.22;;;-146.70;89.68
7474;BME280;3778;42.572;23.426;2023-01-25T02:08:27;95731.13;;;-146.70;89.60
7474;BME280;3778;42.572;23.426;2023-01-25T02:10:56;95783.25;;;-146.70;89.72
7474;BME280;3778;42.572;23.426;2023-01-25T02:13:23;95760.31;;;-146.70;89.82
7474;BME280;3778;42.572;23.426;2023-01-25T02:15:51;95764.47;;;-146.70;89.80
7474;BME280;3778;42.572;23.426;2023-01-25T02:18:20;95751.97;;;-146.70;90.05
7474;BME280;3778;42.572;23.426;2023-01-25T02:20:51;95774.91;;;-146.70;90.00
7474;BME280;3778;42.572;23.426;2023-01-25T02:23:23;95772.81;;;-146.70;90.13
7474;BME280;3778;42.572;23.426;2023-01-25T02:25:52;95814.50;;;-146.70;90.03
7474;BME280;3778;42.572;23.426;2023-01-25T02:28:22;95824.94;;;-146.70;89.99
7474;BME280;3778;42.572;23.426;2023-01-25T02:30:51;95820.75;;;-146.70;90.05
7474;BME280;3778;42.572;23.426;2023-01-25T02:33:17;95749.88;;;-146.70;90.11
7474;BME280;3778;42.572;23.426;2023-01-25T02:35:46;95818.69;;;-146.70;90.07
7474;BME280;3778;42.572;23.426;2023-01-25T02:38:16;95766.56;;;-146.70;90.28
7474;BME280;3778;42.572;23.426;2023-01-25T02:40:45;95781.16;;;-146.70;90.29
7474;BME280;3778;42.572;23.426;2023-01-25T02:43:15;95729.03;;;-146.70;90.23
7474;BME280;3778;42.572;23.426;2023-01-25T02:45:44;95762.41;;;-146.70;90.25
7474;BME280;3778;42.572;23.426;2023-01-25T02:48:11;95818.69;;;-146.70;90.24
7474;BME280;3778;42.572;23.426;2023-01-25T02:50:38;95795.75;;;-146.70;90.35
7474;BME280;3778;42.572;23.426;2023-01-25T02:53:05;95833.28;;;-146.70;90.10
7474;BME280;3778;42.572;23.426;2023-01-25T02:55:31;95822.84;;;-146.70;90.06
7474;BME280;3778;42.572;23.426;2023-01-25T02:57:58;95812.44;;;-146.70;90.05
7474;BME280;3778;42.572;23.426;2023-01-25T03:00:26;95795.75;;;-146.70;90.01
7474;BME280;3778;42.572;23.426;2023-01-25T03:02:53;95758.22;;;-146.70;89.92
7474;BME280;3778;42.572;23.426;2023-01-25T03:05:20;95822.84;;;-146.70;89.81
7474;BME280;3778;42.572;23.426;2023-01-25T03:07:46;95745.72;;;-146.70;89.52
7474;BME280;3778;42.572;23.426;2023-01-25T03:10:14;95729.03;;;-146.70;89.22
7474;BME280;3778;42.572;23.426;2023-01-25T03:12:40;95854.13;;;-146.70;89.08
7474;BME280;3778;42.572;23.426;2023-01-25T03:15:08;95787.41;;;-146.70;89.23
7474;BME280;3778;42.572;23.426;2023-01-25T03:17:36;95754.06;;;-146.70;89.32
7474;BME280;3778;42.572;23.426;2023-01-25T03:20:03;95758.22;;;-146.70;89.50
7474;BME280;3778;42.572;23.426;2023-01-25T03:22:30;95762.41;;;-146.70;89.45
7474;BME280;3778;42.572;23.426;2023-01-25T03:24:57;95760.31;;;-146.70;89.27
7474;BME280;3778;42.572;23.426;2023-01-25T03:27:23;95770.72;;;-146.70;89.27
7474;BME280;3778;42.572;23.426;2023-01-25T03:29:50;95835.34;;;-146.70;89.35
7474;BME280;3778;42.572;23.426;2023-01-25T03:32:17;95847.88;;;-146.70;89.26
7474;BME280;3778;42.572;23.426;2023-01-25T03:34:45;95822.84;;;-146.70;89.31
7474;BME280;3778;42.572;23.426;2023-01-25T03:37:12;95831.19;;;-146.70;89.38
7474;BME280;3778;42.572;23.426;2023-01-25T03:39:38;95791.59;;;-146.70;89.43
7474;BME280;3778;42.572;23.426;2023-01-25T03:42:05;95781.16;;;-146.70;89.57
7474;BME280;3778;42.572;23.426;2023-01-25T03:44:32;95741.56;;;-146.70;89.66
7474;BME280;3778;42.572;23.426;2023-01-25T03:46:59;95781.16;;;-146.70;89.77
7474;BME280;3778;42.572;23.426;2023-01-25T03:49:25;95745.72;;;-146.70;89.74
7474;BME280;3778;42.572;23.426;2023-01-25T03:51:54;95741.56;;;-146.70;89.62
7474;BME280;3778;42.572;23.426;2023-01-25T03:54:22;95747.81;;;-146.70;89.68
7474;BME280;3778;42.572;23.426;2023-01-25T03:56:49;95737.38;;;-146.70;89.43
7474;BME280;3778;42.572;23.426;2023-01-25T03:59:15;95779.06;;;-146.70;89.30
7474;BME280;3778;42.572;23.426;2023-01-25T04:01:42;95812.44;;;-146.70;89.23
7474;BME280;3778;42.572;23.426;2023-01-25T04:04:09;95716.53;;;-146.70;89.25
7474;BME280;3778;42.572;23.426;2023-01-25T04:06:35;95766.56;;;-146.70;89.33
7474;BME280;3778;42.572;23.426;2023-01-25T04:09:05;95816.59;;;-146.70;89.41
7474;BME280;3778;42.572;23.426;2023-01-25T04:11:32;95833.28;;;-146.70;89.42
7474;BME280;3778;42.572;23.426;2023-01-25T04:13:59;95787.41;;;-146.70;89.52
7474;BME280;3778;42.572;23.426;2023-01-25T04:16:25;95760.31;;;-146.70;89.46
7474;BME280;3778;42.572;23.426;2023-01-25T04:18:54;95760.31;;;-146.70;89.36
7474;BME280;3778;42.572;23.426;2023-01-25T04:21:21;95768.66;;;-146.70;89.37
7474;BME280;3778;42.572;23.426;2023-01-25T04:23:48;95804.09;;;-146.70;89.51
7474;BME280;3778;42.572;23.426;2023-01-25T04:26:16;95779.06;;;-146.70;89.54
7474;BME280;3778;42.572;23.426;2023-01-25T04:28:42;95741.56;;;-146.70;89.62
7474;BME280;3778;42.572;23.426;2023-01-25T04:31:09;95733.22;;;-146.70;89.69
7474;BME280;3778;42.572;23.426;2023-01-25T04:33:36;95747.81;;;-146.70;89.66
7474;BME280;3778;42.572;23.426;2023-01-25T04:36:03;95758.22;;;-146.70;89.62
7474;BME280;3778;42.572;23.426;2023-01-25T04:38:30;95812.44;;;-146.70;89.61
7474;BME280;3778;42.572;23.426;2023-01-25T04:40:56;95756.13;;;-146.70;89.63
7474;BME280;3778;42.572;23.426;2023-01-25T04:43:25;95802.00;;;-146.70;89.47
7474;BME280;3778;42.572;23.426;2023-01-25T04:45:51;95808.25;;;-146.70;89.45
7474;BME280;3778;42.572;23.426;2023-01-25T04:48:18;95758.22;;;-146.70;89.44
7474;BME280;3778;42.572;23.426;2023-01-25T04:50:45;95758.22;;;-146.70;89.55
7474;BME280;3778;42.572;23.426;2023-01-25T04:53:12;95766.56;;;-146.70;89.60
7474;BME280;3778;42.572;23.426;2023-01-25T04:55:39;95820.75;;;-146.70;89.63
7474;BME280;3778;42.572;23.426;2023-01-25T04:58:05;95797.84;;;-146.70;89.69
7474;BME280;3778;42.572;23.426;2023-01-25T05:00:33;95785.31;;;-146.70;89.70
7474;BME280;3778;42.572;23.426;2023-01-25T05:03:01;95799.91;;;-146.70;89.60
7474;BME280;3778;42.572;23.426;2023-01-25T05:05:28;95799.91;;;-146.70;89.52
7474;BME280;3778;42.572;23.426;2023-01-25T05:07:55;95781.16;;;-146.70;89.42
7474;BME280;3778;42.572;23.426;2023-01-25T05:10:22;95787.41;;;-146.70;89.43
7474;BME280;3778;42.572;23.426;2023-01-25T05:12:48;95795.75;;;-146.70;89.37
7474;BME280;3778;42.572;23.426;2023-01-25T05:15:15;95820.75;;;-146.70;89.31
7474;BME280;3778;42.572;23.426;2023-01-25T05:17:43;95818.69;;;-146.70;89.36
7474;BME280;3778;42.572;23.426;2023-01-25T05:20:11;95762.41;;;-146.70;89.26
7474;BME280;3778;42.572;23.426;2023-01-25T05:22:37;95751.97;;;-146.70;88.98
7474;BME280;3778;42.572;23.426;2023-01-25T05:25:05;95812.44;;;-146.70;88.83
7474;BME280;3778;42.572;23.426;2023-01-25T05:27:51;95787.41;;;-146.70;88.97
7474;BME280;3778;42.572;23.426;2023-01-25T05:30:17;95808.25;;;-146.70;88.94
7474;BME280;3778;42.572;23.426;2023-01-25T05:32:47;95770.72;;;-146.70;89.07
7474;BME280;3778;42.572;23.426;2023-01-25T05:35:13;95829.09;;;-146.70;88.89
7474;BME280;3778;42.572;23.426;2023-01-25T05:37:40;95827.03;;;-146.70;89.00
7474;BME280;3778;42.572;23.426;2023-01-25T05:40:08;95772.81;;;-146.70;89.03
7474;BME280;3778;42.572;23.426;2023-01-25T05:42:34;95729.03;;;-146.70;89.04
7474;BME280;3778;42.572;23.426;2023-01-25T05:45:01;95783.25;;;-146.70;89.00
7474;BME280;3778;42.572;23.426;2023-01-25T05:47:28;95770.72;;;-146.70;89.15
7474;BME280;3778;42.572;23.426;2023-01-25T05:49:56;95812.44;;;-146.70;89.08
7474;BME280;3778;42.572;23.426;2023-01-25T05:52:23;95806.16;;;-146.70;89.08
7474;BME280;3778;42.572;23.426;2023-01-25T05:54:50;95799.91;;;-146.70;89.19
7474;BME280;3778;42.572;23.426;2023-01-25T05:57:16;95708.19;;;-146.70;89.27
7474;BME280;3778;42.572;23.426;2023-01-25T05:59:43;95797.84;;;-146.70;89.32
7474;BME280;3778;42.572;23.426;2023-01-25T06:02:10;95789.50;;;-146.70;89.28
7474;BME280;3778;42.572;23.426;2023-01-25T06:04:36;95816.59;;;-146.70;89.39
7474;BME280;3778;42.572;23.426;2023-01-25T06:07:04;95793.66;;;-146.70;89.25
7474;BME280;3778;42.572;23.426;2023-01-25T06:09:31;95777.00;;;-146.70;89.22
7474;BME280;3778;42.572;23.426;2023-01-25T06:11:58;95777.00;;;-146.70;89.09
7474;BME280;3778;42.572;23.426;2023-01-25T06:14:24;95795.75;;;-146.70;89.09
7474;BME280;3778;42.572;23.426;2023-01-25T06:16:51;95806.16;;;-146.70;89.03
7474;BME280;3778;42.572;23.426;2023-01-25T06:19:18;95793.66;;;-146.70;89.04
7474;BME280;3778;42.572;23.426;2023-01-25T06:21:44;95745.72;;;-146.70;89.03
7474;BME280;3778;42.572;23.426;2023-01-25T06:24:12;95837.44;;;-146.70;88.94
7474;BME280;3778;42.572;23.426;2023-01-25T06:26:39;95806.16;;;-146.70;88.97
7474;BME280;3778;42.572;23.426;2023-01-25T06:29:06;95839.53;;;-146.70;88.94
7474;BME280;3778;42.572;23.426;2023-01-25T06:31:32;95756.13;;;-146.70;89.09
7474;BME280;3778;42.572;23.426;2023-01-25T06:34:00;95756.13;;;-146.70;88.84
7474;BME280;3778;42.572;23.426;2023-01-25T06:36:29;95768.66;;;-146.70;89.06
7474;BME280;3778;42.572;23.426;2023-01-25T06:38:55;95816.59;;;-146.70;88.86
7474;BME280;3778;42.572;23.426;2023-01-25T06:41:24;95799.91;;;-146.70;89.03
7474;BME280;3778;42.572;23.426;2023-01-25T06:43:51;95758.22;;;-146.70;88.77
7474;BME280;3778;42.572;23.426;2023-01-25T06:46:18;95779.06;;;-146.70;88.70
7474;BME280;3778;42.572;23.426;2023-01-25T06:48:45;95806.16;;;-146.70;88.66
7474;BME280;3778;42.572;23.426;2023-01-25T06:51:13;95806.16;;;-146.70;88.56
7474;BME280;3778;42.572;23.426;2023-01-25T06:53:41;95824.94;;;-146.70;88.52
7474;BME280;3778;42.572;23.426;2023-01-25T06:56:10;95774.91;;;-146.70;88.59
7474;BME280;3778;42.572;23.426;2023-01-25T06:58:38;95802.00;;;-146.70;88.72
7474;BME280;3778;42.572;23.426;2023-01-25T07:01:07;95835.34;;;-146.70;88.86
7474;BME280;3778;42.572;23.426;2023-01-25T07:03:34;95764.47;;;-146.70;88.97
7474;BME280;3778;42.572;23.426;2023-01-25T07:06:02;95831.19;;;-146.70;88.99
7474;BME280;3778;42.572;23.426;2023-01-25T07:08:29;95827.03;;;-146.70;88.97
7474;BME280;3778;42.572;23.426;2023-01-25T07:10:58;95785.31;;;-146.70;89.07
7474;BME280;3778;42.572;23.426;2023-01-25T07:13:26;95789.50;;;-146.70;89.12
7474;BME280;3778;42.572;23.426;2023-01-25T07:15:57;95781.16;;;-146.70;89.13
7474;BME280;3778;42.572;23.426;2023-01-25T07:18:25;95758.22;;;-146.70;89.13
7474;BME280;3778;42.572;23.426;2023-01-25T07:20:52;95804.09;;;-146.70;89.04
7474;BME280;3778;42.572;23.426;2023-01-25T07:23:19;95795.75;;;-146.70;88.91
7474;BME280;3778;42.572;23.426;2023-01-25T07:25:47;95781.16;;;-146.70;88.82
7474;BME280;3778;42.572;23.426;2023-01-25T07:28:14;95858.28;;;-146.70;88.90
7474;BME280;3778;42.572;23.426;2023-01-25T07:30:42;95827.03;;;-146.70;88.98
7474;BME280;3778;42.572;23.426;2023-01-25T07:33:10;95816.59;;;-146.70;88.98
7474;BME280;3778;42.572;23.426;2023-01-25T07:35:37;95795.75;;;-146.70;88.96
7474;BME280;3778;42.572;23.426;2023-01-25T07:38:04;95799.91;;;-146.70;88.86
7474;BME280;3778;42.572;23.426;2023-01-25T07:40:30;95762.41;;;-146.70;88.93
7474;BME280;3778;42.572;23.426;2023-01-25T07:42:57;95726.97;;;-146.70;88.86
7474;BME280;3778;42.572;23.426;2023-01-25T07:45:24;95787.41;;;-146.70;88.84
7474;BME280;3778;42.572;23.426;2023-01-25T07:47:55;95766.56;;;-146.70;88.66
7474;BME280;3778;42.572;23.426;2023-01-25T07:50:24;95787.41;;;-146.70;88.44
7474;BME280;3778;42.572;23.426;2023-01-25T07:52:51;95854.13;;;-146.70;88.41
7474;BME280;3778;42.572;23.426;2023-01-25T07:55:18;95762.41;;;-146.70;88.42
7474;BME280;3778;42.572;23.426;2023-01-25T07:57:44;95766.56;;;-146.70;88.38
7474;BME280;3778;42.572;23.426;2023-01-25T08:00:12;95839.53;;;-146.70;88.48
7474;BME280;3778;42.572;23.426;2023-01-25T08:02:39;95816.59;;;-146.70;88.62
7474;BME280;3778;42.572;23.426;2023-01-25T08:05:07;95760.31;;;-146.70;88.72
7474;BME280;3778;42.572;23.426;2023-01-25T08:07:35;95810.34;;;-146.70;88.82
7474;BME280;3778;42.572;23.426;2023-01-25T08:10:02;95787.41;;;-146.70;88.67
7474;BME280;3778;42.572;23.426;2023-01-25T08:12:28;95787.41;;;-146.70;88.72
7474;BME280;3778;42.572;23.426;2023-01-25T08:14:55;95789.50;;;-146.70;88.80
7474;BME280;3778;42.572;23.426;2023-01-25T08:17:22;95810.34;;;-146.70;88.84
7474;BME280;3778;42.572;23.426;2023-01-25T08:19:49;95808.25;;;-146.70;88.72
7474;BME280;3778;42.572;23.426;2023-01-25T08:22:15;95733.22;;;-146.70;88.73
7474;BME280;3778;42.572;23.426;2023-01-25T08:24:43;95779.06;;;-146.70;88.68
7474;BME280;3778;42.572;23.426;2023-01-25T08:27:10;95781.16;;;-146.70;88.64
7474;BME280;3778;42.572;23.426;2023-01-25T08:29:37;95722.78;;;-146.70;88.45
7474;BME280;3778;42.572;23.426;2023-01-25T08:32:04;95766.56;;;-146.70;88.19
7474;BME280;3778;42.572;23.426;2023-01-25T08:34:32;95787.41;;;-146.70;88.08
7474;BME280;3778;42.572;23.426;2023-01-25T08:36:59;95770.72;;;-146.70;87.76
7474;BME280;3778;42.572;23.426;2023-01-25T08:39:26;95766.56;;;-146.70;87.41
7474;BME280;3778;42.572;23.426;2023-01-25T08:41:54;95812.44;;;-146.70;87.07
7474;BME280;3778;42.572;23.426;2023-01-25T08:44:20;95789.50;;;-146.70;87.09
7474;BME280;3778;42.572;23.426;2023-01-25T08:46:48;95731.13;;;-146.70;86.80
7474;BME280;3778;42.572;23.426;2023-01-25T08:49:15;95760.31;;;-146.70;86.76
7474;BME280;3778;42.572;23.426;2023-01-25T08:51:42;95672.75;;;-146.70;86.92
7474;BME280;3778;42.572;23.426;2023-01-25T08:54:10;95731.13;;;-146.70;86.69
7474;BME280;3778;42.572;23.426;2023-01-25T08:56:38;95814.50;;;-146.70;86.56
7474;BME280;3778;42.572;23.426;2023-01-25T08:59:07;95762.41;;;-146.70;86.61
7474;BME280;3778;42.572;23.426;2023-01-25T09:01:34;95712.38;;;-146.70;86.32
7474;BME280;3778;42.572;23.426;2023-01-25T09:04:00;95762.41;;;-146.70;85.94
7474;BME280;3778;42.572;23.426;2023-01-25T09:06:27;95716.53;;;-146.70;85.60
7474;BME280;3778;42.572;23.426;2023-01-25T09:08:54;95743.63;;;-146.70;84.26
7474;BME280;3778;42.572;23.426;2023-01-25T09:11:21;95708.19;;;-146.70;84.11
7474;BME280;3778;42.572;23.426;2023-01-25T09:13:49;95695.69;;;-146.70;83.83
7474;BME280;3778;42.572;23.426;2023-01-25T09:16:19;95729.03;;;-146.70;83.92
7474;BME280;3778;42.572;23.426;2023-01-25T09:18:53;95710.28;;;-146.70;83.37
7474;BME280;3778;42.572;23.426;2023-01-25T09:21:20;95672.75;;;-146.70;83.73
7474;BME280;3778;42.572;23.426;2023-01-25T09:23:46;95679.00;;;-146.70;83.15
7474;BME280;3778;42.572;23.426;2023-01-25T09:26:15;95701.94;;;-146.70;83.20
7474;BME280;3778;42.572;23.426;2023-01-25T09:28:46;95670.69;;;-146.70;82.26
7474;BME280;3778;42.572;23.426;2023-01-25T09:31:13;95691.53;;;-146.70;81.02
7474;BME280;3778;42.572;23.426;2023-01-25T09:33:41;95651.91;;;-146.70;80.55
7474;BME280;3778;42.572;23.426;2023-01-25T09:36:08;95718.63;;;-146.70;79.47
7474;BME280;3778;42.572;23.426;2023-01-25T09:38:35;95674.84;;;-146.70;79.22
7474;BME280;3778;42.572;23.426;2023-01-25T09:41:13;95668.59;;;-146.70;80.81
7474;BME280;3778;42.572;23.426;2023-01-25T09:43:59;95649.84;;;-146.70;81.43
7474;BME280;3778;42.572;23.426;2023-01-25T09:46:38;95685.28;;;-146.70;82.01
7474;BME280;3778;42.572;23.426;2023-01-25T09:49:15;95622.72;;;-146.70;81.64
7474;BME280;3778;42.572;23.426;2023-01-25T09:51:56;95631.06;;;-146.70;79.79
7474;BME280;3778;42.572;23.426;2023-01-25T09:54:25;95662.34;;;-146.70;78.13
7474;BME280;3778;42.572;23.426;2023-01-25T09:56:53;95639.41;;;-146.70;78.50
7474;BME280;3778;42.572;23.426;2023-01-25T09:59:25;95658.16;;;-146.70;78.69
7474;BME280;3778;42.572;23.426;2023-01-25T10:01:56;95618.56;;;-146.70;76.31
7474;BME280;3778;42.572;23.426;2023-01-25T10:04:29;95658.16;;;-146.70;75.65
7474;BME280;3778;42.572;23.426;2023-01-25T10:07:09;95591.47;;;-146.70;74.58
7474;BME280;3778;42.572;23.426;2023-01-25T10:09:42;95670.69;;;-146.70;74.22
7474;BME280;3778;42.572;23.426;2023-01-25T10:12:15;95589.38;;;-146.70;75.66
7474;BME280;3778;42.572;23.426;2023-01-25T10:14:44;95610.22;;;-146.70;74.99
7474;BME280;3778;42.572;23.426;2023-01-25T10:17:14;95616.47;;;-146.70;74.18
7474;BME280;3778;42.572;23.426;2023-01-25T10:20:05;95593.56;;;-146.70;74.71
7474;BME280;3778;42.572;23.426;2023-01-25T10:22:39;95633.16;;;-146.70;73.06
7474;BME280;3778;42.572;23.426;2023-01-25T10:25:23;95597.72;;;-146.70;74.42
7474;BME280;3778;42.572;23.426;2023-01-25T10:28:04;95654.00;;;-146.70;73.67
7474;BME280;3778;42.572;23.426;2023-01-25T10:30:38;95570.63;;;-146.70;71.99
7474;BME280;3778;42.572;23.426;2023-01-25T10:33:12;95574.78;;;-146.70;72.98
7474;BME280;3778;42.572;23.426;2023-01-25T10:35:43;95514.34;;;-146.70;72.88
7474;BME280;3778;42.572;23.426;2023-01-25T10:38:14;95643.56;;;-146.70;71.88
7474;BME280;3778;42.572;23.426;2023-01-25T10:40:46;95597.72;;;-146.70;73.78
7474;BME280;3778;42.572;23.426;2023-01-25T10:43:17;95643.56;;;-146.70;72.51
7474;BME280;3778;42.572;23.426;2023-01-25T10:45:45;95608.16;;;-146.70;73.04
7474;BME280;3778;42.572;23.426;2023-01-25T10:48:17;95591.47;;;-146.70;72.75
7474;BME280;3778;42.572;23.426;2023-01-25T10:50:48;95603.97;;;-146.70;74.39
7474;BME280;3778;42.572;23.426;2023-01-25T10:53:22;95606.06;;;-146.70;72.55
7474;BME280;3778;42.572;23.426;2023-01-25T10:56:02;95545.59;;;-146.70;71.06
7474;BME280;3778;42.572;23.426;2023-01-25T10:58:34;95583.13;;;-146.70;71.59
7474;BME280;3778;42.572;23.426;2023-01-25T11:01:01;95591.47;;;-146.70;70.81
7474;BME280;3778;42.572;23.426;2023-01-25T11:03:36;95568.53;;;-146.70;70.82
7474;BME280;3778;42.572;23.426;2023-01-25T11:06:05;95541.44;;;-146.70;69.70
7474;BME280;3778;42.572;23.426;2023-01-25T11:08:34;95545.59;;;-146.70;69.87
7474;BME280;3778;42.572;23.426;2023-01-25T11:11:23;95545.59;;;-146.70;69.63
7474;BME280;3778;42.572;23.426;2023-01-25T11:13:51;95551.88;;;-146.70;69.37
7474;BME280;3778;42.572;23.426;2023-01-25T11:16:32;95556.03;;;-146.70;69.36
7474;BME280;3778;42.572;23.426;2023-01-25T11:19:00;95583.13;;;-146.70;69.80
7474;BME280;3778;42.572;23.426;2023-01-25T11:21:30;95526.84;;;-146.70;70.42
7474;BME280;3778;42.572;23.426;2023-01-25T11:24:00;95531.00;;;-146.70;69.36
7474;BME280;3778;42.572;23.426;2023-01-25T11:26:28;95597.72;;;-146.70;70.09
7474;BME280;3778;42.572;23.426;2023-01-25T11:29:06;95553.94;;;-146.70;69.65
7474;BME280;3778;42.572;23.426;2023-01-25T11:31:33;95535.19;;;-146.70;68.98
7474;BME280;3778;42.572;23.426;2023-01-25T11:34:00;95549.78;;;-146.70;70.28
7474;BME280;3778;42.572;23.426;2023-01-25T11:36:34;95533.09;;;-146.70;69.98
7474;BME280;3778;42.572;23.426;2023-01-25T11:39:12;95574.78;;;-146.70;69.18
7474;BME280;3778;42.572;23.426;2023-01-25T11:41:57;95518.50;;;-146.70;69.58
7474;BME280;3778;42.572;23.426;2023-01-25T11:45:14;95581.03;;;-146.70;68.83
7474;BME280;3778;42.572;23.426;2023-01-25T11:47:53;95583.13;;;-146.70;68.83
7474;BME280;3778;42.572;23.426;2023-01-25T11:50:27;95543.53;;;-146.70;69.42
7474;BME280;3778;42.572;23.426;2023-01-25T11:55:48;95556.03;;;-146.70;70.16
7474;BME280;3778;42.572;23.426;2023-01-25T11:58:32;95564.38;;;-146.70;69.05
7474;BME280;3778;42.572;23.426;2023-01-25T12:01:09;95553.94;;;-146.70;68.85
7474;BME280;3778;42.572;23.426;2023-01-25T12:04:07;95610.22;;;-146.70;69.06
7474;BME280;3778;42.572;23.426;2023-01-25T12:06:52;95558.13;;;-146.70;69.83
7474;BME280;3778;42.572;23.426;2023-01-25T12:09:36;95535.19;;;-146.70;69.77
7474;BME280;3778;42.572;23.426;2023-01-25T12:12:15;95597.72;;;-146.70;70.26
7474;BME280;3778;42.572;23.426;2023-01-25T12:14:56;95603.97;;;-146.70;70.18
7474;BME280;3778;42.572;23.426;2023-01-25T12:17:37;95578.97;;;-146.70;70.49
7474;BME280;3778;42.572;23.426;2023-01-25T12:20:38;95560.19;;;-146.70;70.05
7474;BME280;3778;42.572;23.426;2023-01-25T12:23:22;95578.97;;;-146.70;69.97
7474;BME280;3778;42.572;23.426;2023-01-25T12:26:05;95585.22;;;-146.70;71.06
7474;BME280;3778;42.572;23.426;2023-01-25T12:28:39;95560.19;;;-146.70;70.08
7474;BME280;3778;42.572;23.426;2023-01-25T12:31:13;95591.47;;;-146.70;70.72
7474;BME280;3778;42.572;23.426;2023-01-25T12:33:45;95606.06;;;-146.70;70.64
7474;BME280;3778;42.572;23.426;2023-01-25T12:36:16;95553.94;;;-146.70;70.67
7474;BME280;3778;42.572;23.426;2023-01-25T12:38:51;95564.38;;;-146.70;71.06
7474;BME280;3778;42.572;23.426;2023-01-25T12:41:30;95616.47;;;-146.70;70.18
7474;BME280;3778;42.572;23.426;2023-01-25T12:44:05;95639.41;;;-146.70;71.10
7474;BME280;3778;42.572;23.426;2023-01-25T12:46:39;95629.00;;;-146.70;70.67
7474;BME280;3778;42.572;23.426;2023-01-25T12:49:15;95599.81;;;-146.70;70.88
7474;BME280;3778;42.572;23.426;2023-01-25T12:51:44;95597.72;;;-146.70;70.95
7474;BME280;3778;42.572;23.426;2023-01-25T12:54:17;95664.44;;;-146.70;71.03
7474;BME280;3778;42.572;23.426;2023-01-25T12:56:53;95639.41;;;-146.70;71.47
7474;BME280;3778;42.572;23.426;2023-01-25T12:59:30;95612.31;;;-146.70;71.46
7474;BME280;3778;42.572;23.426;2023-01-25T13:02:08;95668.59;;;-146.70;71.43
7474;BME280;3778;42.572;23.426;2023-01-25T13:04:52;95597.72;;;-146.70;71.13
7474;BME280;3778;42.572;23.426;2023-01-25T13:07:28;95658.16;;;-146.70;71.69